createdAt,value
2022-10-10T00:01:07.367Z,12.10
2022-10-10T00:03:41.378Z,6.63
2022-10-10T00:06:09.669Z,9.00
2022-10-10T00:08:37.675Z,9.70
2022-10-10T00:11:12.284Z,9.98
2022-10-10T00:13:42.462Z,9.00
2022-10-10T00:16:12.632Z,11.07
2022-10-10T00:18:47.549Z,8.02
2022-10-10T00:21:15.026Z,8.10
2022-10-10T00:23:55.534Z,7.57
2022-10-10T00:26:34.808Z,8.10
2022-10-10T00:29:08.819Z,6.85
2022-10-10T00:31:36.177Z,7.40
2022-10-10T00:34:03.855Z,6.18
2022-10-10T00:36:37.854Z,10.85
2022-10-10T00:39:05.420Z,5.78
2022-10-10T00:41:32.777Z,7.00
2022-10-10T00:44:23.007Z,7.05
2022-10-10T00:46:52.956Z,5.15
2022-10-10T00:49:23.471Z,8.05
2022-10-10T00:51:59.821Z,8.48
2022-10-10T00:54:34.995Z,5.07
2022-10-10T00:57:17.857Z,6.03
2022-10-10T00:59:47.025Z,7.35
2022-10-10T01:02:14.358Z,4.40
2022-10-10T01:04:52.634Z,6.20
2022-10-10T01:07:29.330Z,6.00
2022-10-10T01:10:09.672Z,8.50
2022-10-10T01:12:54.967Z,8.23
2022-10-10T01:15:48.375Z,8.38
2022-10-10T01:18:40.593Z,6.18
2022-10-10T01:21:35.389Z,7.68
2022-10-10T01:24:19.521Z,7.75
2022-10-10T01:27:12.398Z,5.07
2022-10-10T01:30:06.128Z,6.07
2022-10-10T01:33:03.385Z,6.00
2022-10-10T01:35:33.512Z,6.20
2022-10-10T01:38:24.408Z,8.18
2022-10-10T01:41:08.534Z,6.43
2022-10-10T01:43:43.410Z,4.50
2022-10-10T01:46:16.563Z,6.75
2022-10-10T01:48:52.378Z,7.00
2022-10-10T01:51:29.596Z,5.28
2022-10-10T01:54:32.981Z,6.47
2022-10-10T01:57:10.778Z,4.35
2022-10-10T02:00:13.965Z,9.02
2022-10-10T02:03:07.794Z,7.45
2022-10-10T02:05:50.084Z,6.22
2022-10-10T02:08:33.589Z,4.32
2022-10-10T02:11:12.635Z,6.40
2022-10-10T02:14:12.074Z,5.35
2022-10-10T02:16:49.617Z,6.80
2022-10-10T02:19:20.044Z,5.15
2022-10-10T02:21:59.635Z,5.28
2022-10-10T02:24:33.658Z,6.95
2022-10-10T02:27:34.644Z,7.28
2022-10-10T02:30:04.980Z,5.70
2022-10-10T02:32:57.654Z,5.93
2022-10-10T02:35:31.289Z,4.57
2022-10-10T02:38:06.647Z,8.23
2022-10-10T02:40:35.607Z,7.28
2022-10-10T02:43:06.168Z,7.97
2022-10-10T02:45:40.653Z,5.70
2022-10-10T02:48:08.730Z,6.20
2022-10-10T02:50:36.115Z,6.13
2022-10-10T02:53:09.623Z,7.18
2022-10-10T02:55:36.978Z,8.40
2022-10-10T02:58:04.309Z,7.60
2022-10-10T03:00:38.638Z,5.57
2022-10-10T03:03:06.013Z,7.53
2022-10-10T03:05:33.379Z,5.22
2022-10-10T03:08:11.499Z,7.85
2022-10-10T03:10:39.667Z,6.45
2022-10-10T03:13:07.150Z,6.43
2022-10-10T03:15:40.625Z,7.30
2022-10-10T03:18:07.983Z,5.18
2022-10-10T03:20:35.344Z,7.22
2022-10-10T03:23:11.007Z,10.57
2022-10-10T03:25:43.977Z,8.77
2022-10-10T03:28:25.071Z,6.65
2022-10-10T03:30:52.490Z,5.68
2022-10-10T03:33:19.948Z,8.35
2022-10-10T03:35:54.009Z,8.85
2022-10-10T03:38:21.344Z,6.95
2022-10-10T03:40:48.708Z,8.45
2022-10-10T03:43:25.709Z,7.93
2022-10-10T03:45:53.171Z,9.85
2022-10-10T03:48:20.526Z,7.45
2022-10-10T03:50:54.717Z,7.40
2022-10-10T03:53:22.506Z,8.30
2022-10-10T03:55:49.852Z,4.45
2022-10-10T03:58:24.113Z,6.50
2022-10-10T04:00:56.233Z,6.80
2022-10-10T04:03:30.778Z,6.22
2022-10-10T04:06:01.141Z,12.43
2022-10-10T04:08:33.429Z,7.50
2022-10-10T04:11:07.379Z,6.32
2022-10-10T04:13:39.567Z,8.70
2022-10-10T04:16:09.470Z,15.13
2022-10-10T04:18:51.859Z,8.85
2022-10-10T04:21:19.262Z,12.25
2022-10-10T04:23:59.839Z,7.30
2022-10-10T04:26:33.897Z,8.20
2022-10-10T04:29:07.843Z,8.18
2022-10-10T04:31:35.511Z,6.45
2022-10-10T04:34:02.834Z,11.40
2022-10-10T04:36:39.888Z,6.22
2022-10-10T04:39:14.952Z,10.43
2022-10-10T04:41:42.414Z,5.30
2022-10-10T04:44:16.051Z,5.80
2022-10-10T04:46:43.790Z,9.38
2022-10-10T04:49:11.457Z,7.90
2022-10-10T04:51:48.430Z,9.35
2022-10-10T04:54:15.796Z,6.13
2022-10-10T04:56:43.303Z,7.20
2022-10-10T04:59:17.409Z,5.88
2022-10-10T05:01:44.775Z,6.13
2022-10-10T05:04:13.258Z,9.73
2022-10-10T05:06:47.432Z,10.43
2022-10-10T05:09:14.821Z,6.47
2022-10-10T05:11:42.439Z,5.53
2022-10-10T05:14:16.659Z,7.45
2022-10-10T05:16:44.084Z,9.25
2022-10-10T05:19:16.435Z,4.82
2022-10-10T05:21:50.425Z,8.88
2022-10-10T05:24:24.537Z,10.68
2022-10-10T05:26:58.447Z,8.45
2022-10-10T05:29:29.190Z,8.85
2022-10-10T05:31:56.656Z,11.95
2022-10-10T05:34:33.492Z,6.35
2022-10-10T05:37:00.992Z,6.10
2022-10-10T05:39:28.478Z,7.75
2022-10-10T05:42:07.656Z,7.45
2022-10-10T05:44:35.093Z,5.53
2022-10-10T05:47:04.451Z,10.35
2022-10-10T05:49:38.748Z,6.68
2022-10-10T05:52:06.309Z,6.40
2022-10-10T05:54:36.298Z,8.13
2022-10-10T05:57:16.088Z,9.45
2022-10-10T05:59:43.794Z,7.93
2022-10-10T06:02:20.439Z,17.17
2022-10-10T06:04:47.926Z,6.40
2022-10-10T06:07:15.437Z,5.90
2022-10-10T06:09:49.284Z,7.65
2022-10-10T06:12:19.212Z,8.18
2022-10-10T06:14:46.662Z,9.25
2022-10-10T06:17:22.592Z,9.18
2022-10-10T06:19:49.976Z,8.10
2022-10-10T06:22:17.336Z,7.00
2022-10-10T06:24:53.104Z,8.85
2022-10-10T06:27:20.680Z,7.45
2022-10-10T06:29:48.181Z,7.68
2022-10-10T06:32:21.620Z,10.32
2022-10-10T06:34:49.042Z,7.05
2022-10-10T06:37:18.849Z,9.18
2022-10-10T06:39:52.888Z,13.95
2022-10-10T06:42:20.248Z,7.03
2022-10-10T06:44:47.673Z,6.80
2022-10-10T06:47:21.903Z,9.13
2022-10-10T06:49:49.256Z,9.88
2022-10-10T06:52:16.743Z,9.63
2022-10-10T06:54:50.886Z,6.15
2022-10-10T06:57:18.315Z,5.03
2022-10-10T06:59:45.879Z,7.68
2022-10-10T07:02:23.694Z,5.38
2022-10-10T07:04:53.528Z,7.90
2022-10-10T07:07:20.930Z,8.20
2022-10-10T07:09:58.226Z,4.95
2022-10-10T07:12:28.053Z,5.70
2022-10-10T07:14:57.071Z,8.57
2022-10-10T07:17:34.897Z,6.18
2022-10-10T07:20:05.047Z,5.38
2022-10-10T07:22:32.779Z,4.30
2022-10-10T07:25:13.767Z,6.60
2022-10-10T07:27:41.229Z,7.43
2022-10-10T07:30:09.138Z,5.78
2022-10-10T07:32:48.342Z,3.00
2022-10-10T07:35:16.817Z,3.33
2022-10-10T07:37:46.770Z,5.43
2022-10-10T07:40:22.791Z,3.40
2022-10-10T07:42:51.109Z,3.53
2022-10-10T07:45:35.964Z,4.95
2022-10-10T07:48:27.414Z,7.85
2022-10-10T07:51:13.186Z,7.28
2022-10-10T07:53:47.201Z,3.15
2022-10-10T07:56:26.827Z,3.67
2022-10-10T07:59:11.598Z,8.23
2022-10-10T08:02:09.270Z,4.30
2022-10-10T08:04:45.983Z,5.43
2022-10-10T08:07:38.501Z,4.47
2022-10-10T08:10:11.393Z,5.53
2022-10-10T08:12:45.198Z,4.68
2022-10-10T08:15:15.297Z,5.82
2022-10-10T08:17:42.814Z,4.55
2022-10-10T08:20:17.277Z,4.60
2022-10-10T08:22:51.583Z,4.53
2022-10-10T08:25:33.323Z,5.40
2022-10-10T08:28:00.916Z,3.42
2022-10-10T08:30:56.714Z,4.57
2022-10-10T08:33:27.960Z,4.55
2022-10-10T08:36:05.126Z,4.13
2022-10-10T08:38:32.613Z,3.92
2022-10-10T08:41:35.760Z,8.60
2022-10-10T08:44:18.547Z,9.68
2022-10-10T08:47:08.751Z,4.60
2022-10-10T08:49:56.679Z,4.43
2022-10-10T08:53:00.691Z,8.10
2022-10-10T08:55:35.511Z,5.28
2022-10-10T08:58:30.702Z,4.82
2022-10-10T09:01:10.975Z,8.38
2022-10-10T09:03:55.105Z,3.88
2022-10-10T09:06:28.938Z,7.38
2022-10-10T09:09:28.017Z,5.22
2022-10-10T09:12:22.172Z,6.65
2022-10-10T09:15:25.959Z,7.40
2022-10-10T09:17:59.055Z,11.38
2022-10-10T09:20:51.950Z,8.73
2022-10-10T09:23:28.174Z,10.63
2022-10-10T09:26:20.914Z,8.77
2022-10-10T09:28:58.109Z,10.48
2022-10-10T09:31:57.976Z,18.35
2022-10-10T09:34:37.849Z,10.30
2022-10-10T09:37:29.454Z,13.55
2022-10-10T09:40:28.155Z,9.98
2022-10-10T09:43:03.023Z,16.00
2022-10-10T09:45:43.731Z,9.02
2022-10-10T09:48:18.033Z,12.98
2022-10-10T09:50:45.800Z,13.70
2022-10-10T09:53:17.378Z,13.73
2022-10-10T09:55:53.045Z,15.38
2022-10-10T09:58:43.351Z,18.63
2022-10-10T10:01:18.082Z,14.82
2022-10-10T10:04:27.171Z,14.48
2022-10-10T10:07:36.175Z,15.25
2022-10-10T10:10:26.876Z,14.32
2022-10-10T10:13:02.197Z,15.15
2022-10-10T10:15:33.195Z,17.75
2022-10-10T10:18:17.189Z,16.55
2022-10-10T10:20:47.000Z,13.85
2022-10-10T10:23:47.187Z,12.30
2022-10-10T10:26:40.450Z,11.68
2022-10-10T10:29:37.409Z,15.52
2022-10-10T10:32:15.748Z,20.25
2022-10-10T10:35:25.057Z,20.88
2022-10-10T10:38:34.371Z,18.63
2022-10-10T10:41:34.047Z,23.02
2022-10-10T10:44:07.569Z,16.63
2022-10-10T10:46:44.056Z,18.15
2022-10-10T10:49:25.529Z,13.77
2022-10-10T10:52:39.996Z,20.77
2022-10-10T10:55:10.778Z,17.17
2022-10-10T11:01:28.757Z,18.05
2022-10-10T11:05:22.443Z,16.73
2022-10-10T11:07:20.064Z,16.90
2022-10-10T11:10:19.138Z,12.20
2022-10-10T11:13:03.734Z,17.30
2022-10-10T11:16:10.801Z,14.02
2022-10-10T11:19:24.157Z,15.10
2022-10-10T11:22:28.434Z,14.30
2022-10-10T11:25:30.544Z,16.85
2022-10-10T11:28:32.533Z,21.48
2022-10-10T11:31:11.887Z,18.50
2022-10-10T11:33:58.474Z,11.65
2022-10-10T11:36:41.656Z,14.70
2022-10-10T11:39:38.436Z,13.88
2022-10-10T11:42:19.902Z,17.92
2022-10-10T11:45:18.417Z,16.35
2022-10-10T11:48:15.575Z,16.38
2022-10-10T11:50:51.444Z,15.07
2022-10-10T11:53:44.730Z,14.30
2022-10-10T11:56:51.395Z,20.40
2022-10-10T11:59:31.506Z,14.02
2022-10-10T12:02:08.363Z,18.98
2022-10-10T12:04:38.946Z,15.38
2022-10-10T12:07:44.718Z,20.60
2022-10-10T12:10:22.206Z,9.18
2022-10-10T12:13:00.822Z,17.67
2022-10-10T12:15:40.142Z,24.35
2022-10-10T12:18:46.182Z,16.60
2022-10-10T12:21:19.020Z,15.40
2022-10-10T12:24:15.061Z,11.43
2022-10-10T12:26:57.913Z,17.15
2022-10-10T12:29:51.367Z,16.65
2022-10-10T12:32:26.785Z,18.10
2022-10-10T12:35:01.098Z,17.95
2022-10-10T12:38:03.916Z,13.25
2022-10-10T12:40:40.715Z,13.32
2022-10-10T12:43:41.548Z,17.00
2022-10-10T12:46:29.936Z,19.75
2022-10-10T12:49:20.219Z,12.98
2022-10-10T12:52:39.508Z,17.63
2022-10-10T12:55:38.522Z,11.82
2022-10-10T12:58:26.084Z,18.42
2022-10-10T13:00:59.117Z,12.00
2022-10-10T13:03:40.499Z,15.82
2022-10-10T13:06:28.831Z,17.17
2022-10-10T13:09:03.744Z,15.98
2022-10-10T13:11:31.675Z,20.70
2022-10-10T13:13:59.281Z,16.15
2022-10-10T13:16:35.746Z,17.45
2022-10-10T13:19:22.936Z,13.75
2022-10-10T13:22:03.146Z,21.67
2022-10-10T13:24:40.638Z,12.95
2022-10-10T13:27:38.008Z,21.35
2022-10-10T13:30:22.104Z,23.38
2022-10-10T13:32:58.149Z,18.30
2022-10-10T13:35:30.271Z,11.40
2022-10-10T13:38:06.593Z,12.50
2022-10-10T13:40:34.170Z,17.70
2022-10-10T13:43:01.629Z,16.23
2022-10-10T13:45:44.612Z,12.90
2022-10-10T13:48:20.771Z,10.32
2022-10-10T13:51:15.437Z,20.27
2022-10-10T13:53:50.299Z,21.88
2022-10-10T13:56:37.498Z,20.05
2022-10-10T13:59:12.277Z,12.75
2022-10-10T14:01:49.514Z,18.00
2022-10-10T14:04:33.235Z,14.85
2022-10-10T14:07:14.119Z,10.18
2022-10-10T14:09:57.633Z,13.85
2022-10-10T14:12:39.093Z,19.65
2022-10-10T14:15:35.815Z,12.73
2022-10-10T14:18:21.146Z,14.40
2022-10-10T14:20:49.586Z,14.32
2022-10-10T14:23:33.777Z,18.27
2022-10-10T14:26:13.905Z,15.05
2022-10-10T14:28:47.870Z,12.80
2022-10-10T14:31:15.542Z,14.77
2022-10-10T14:33:43.035Z,10.50
2022-10-10T14:36:18.759Z,21.20
2022-10-10T14:38:46.324Z,15.82
2022-10-10T14:44:54.819Z,14.00
2022-10-10T14:47:28.508Z,17.17
2022-10-10T14:50:07.485Z,16.92
2022-10-10T14:52:37.190Z,10.25
2022-10-10T14:55:04.835Z,13.15
2022-10-10T14:57:41.812Z,18.92
2022-10-10T15:00:17.904Z,12.48
2022-10-10T15:02:54.892Z,13.38
2022-10-10T15:05:23.376Z,17.08
2022-10-10T15:07:53.726Z,8.38
2022-10-10T15:10:35.471Z,15.02
2022-10-10T15:13:03.763Z,9.48
2022-10-10T15:15:45.984Z,13.07
2022-10-10T15:18:40.904Z,11.02
2022-10-10T15:21:16.973Z,16.92
2022-10-10T15:23:53.881Z,11.50
2022-10-10T15:26:34.848Z,15.38
2022-10-10T15:29:02.275Z,15.75
2022-10-10T15:31:32.709Z,13.73
2022-10-10T15:34:06.876Z,15.02
2022-10-10T15:36:34.535Z,13.20
2022-10-10T15:39:03.032Z,20.80
2022-10-10T15:41:36.839Z,12.70
2022-10-10T15:44:05.216Z,13.73
2022-10-10T15:46:32.795Z,10.93
2022-10-10T15:49:09.839Z,8.55
2022-10-10T15:51:37.305Z,22.52
2022-10-10T15:54:05.259Z,22.05
2022-10-10T15:56:38.852Z,12.23
2022-10-10T15:59:10.981Z,18.88
2022-10-10T16:01:38.692Z,17.83
2022-10-10T16:04:13.852Z,11.70
2022-10-10T16:06:50.026Z,12.45
2022-10-10T16:09:28.975Z,8.30
2022-10-10T16:11:56.897Z,13.25
2022-10-10T16:14:24.463Z,10.55
2022-10-10T16:17:01.391Z,10.23
2022-10-10T16:19:28.921Z,9.88
2022-10-10T16:21:56.332Z,16.00
2022-10-10T16:24:34.348Z,12.18
2022-10-10T16:27:04.893Z,19.30
2022-10-10T16:29:32.514Z,9.98
2022-10-10T16:32:06.428Z,10.98
2022-10-10T16:34:34.063Z,12.57
2022-10-10T16:37:01.474Z,13.40
2022-10-10T16:39:35.460Z,12.95
2022-10-10T16:42:02.993Z,15.75
2022-10-10T16:44:30.676Z,14.45
2022-10-10T16:47:04.326Z,21.20
2022-10-10T16:49:32.336Z,12.73
2022-10-10T16:51:59.867Z,13.32
2022-10-10T16:54:33.435Z,9.80
2022-10-10T16:57:03.424Z,16.98
2022-10-10T16:59:31.049Z,12.20
2022-10-10T17:02:05.551Z,15.32
2022-10-10T17:04:33.124Z,21.13
2022-10-10T17:07:00.667Z,16.00
2022-10-10T17:09:35.639Z,17.33
2022-10-10T17:12:03.347Z,47.08
2022-10-10T17:14:30.876Z,21.35
2022-10-10T17:17:13.547Z,13.60
2022-10-10T17:19:41.351Z,17.33
2022-10-10T17:22:15.432Z,12.10
2022-10-10T17:24:50.690Z,14.27
2022-10-10T17:27:24.402Z,8.93
2022-10-10T17:29:55.770Z,17.55
2022-10-10T17:32:23.391Z,16.02
2022-10-10T17:34:57.458Z,11.27
2022-10-10T17:37:25.528Z,12.60
2022-10-10T17:39:53.656Z,19.45
2022-10-10T17:42:30.446Z,14.23
2022-10-10T17:44:59.618Z,12.10
2022-10-10T17:47:28.172Z,12.88
2022-10-10T17:50:02.474Z,9.80
2022-10-10T17:52:32.303Z,14.68
2022-10-10T17:54:59.943Z,11.75
2022-10-10T17:57:34.349Z,13.60
2022-10-10T18:00:01.911Z,17.05
2022-10-10T18:02:29.367Z,15.13
2022-10-10T18:05:09.061Z,17.23
2022-10-10T18:07:36.545Z,12.82
2022-10-10T18:10:05.091Z,12.15
2022-10-10T18:12:39.755Z,14.65
2022-10-10T18:15:13.011Z,11.20
2022-10-10T18:17:40.530Z,12.48
2022-10-10T18:20:15.430Z,9.25
2022-10-10T18:22:42.907Z,16.95
2022-10-10T18:25:25.219Z,15.73
2022-10-10T18:27:55.160Z,14.68
2022-10-10T18:30:22.719Z,11.15
2022-10-10T18:32:58.231Z,14.48
2022-10-10T18:35:25.825Z,11.48
2022-10-10T18:37:53.451Z,12.88
2022-10-10T18:40:27.166Z,14.57
2022-10-10T18:42:54.707Z,12.20
2022-10-10T18:45:22.106Z,10.70
2022-10-10T18:47:56.122Z,12.93
2022-10-10T18:50:23.599Z,13.38
2022-10-10T18:52:53.447Z,10.05
2022-10-10T18:55:30.215Z,17.13
2022-10-10T18:58:07.530Z,12.98
2022-10-10T19:00:41.640Z,19.55
2022-10-10T19:03:09.563Z,14.20
2022-10-10T19:05:55.332Z,13.68
2022-10-10T19:08:23.037Z,16.65
2022-10-10T19:10:51.497Z,18.48
2022-10-10T19:13:26.250Z,19.08
2022-10-10T19:15:54.827Z,17.58
2022-10-10T19:18:25.169Z,15.35
2022-10-10T19:21:08.144Z,10.88
2022-10-10T19:23:38.537Z,16.80
2022-10-10T19:26:22.090Z,14.65
2022-10-10T19:29:06.401Z,14.93
2022-10-10T19:31:42.129Z,11.80
2022-10-10T19:34:09.792Z,14.95
2022-10-10T19:36:42.467Z,20.33
2022-10-10T19:39:16.232Z,13.95
2022-10-10T19:41:43.954Z,14.25
2022-10-10T19:44:11.522Z,8.43
2022-10-10T19:46:45.287Z,13.10
2022-10-10T19:49:12.862Z,9.52
2022-10-10T19:51:40.366Z,12.75
2022-10-10T19:54:17.269Z,15.77
2022-10-10T19:56:49.608Z,15.05
2022-10-10T19:59:17.183Z,15.52
2022-10-10T20:01:51.502Z,15.40
2022-10-10T20:04:19.235Z,12.18
2022-10-10T20:06:46.970Z,16.85
2022-10-10T20:09:21.558Z,15.80
2022-10-10T20:11:54.076Z,17.23
2022-10-10T20:14:21.704Z,16.70
2022-10-10T20:17:01.680Z,14.50
2022-10-10T20:19:32.740Z,14.32
2022-10-10T20:22:00.393Z,18.13
2022-10-10T20:24:34.589Z,12.73
2022-10-10T20:27:08.967Z,15.00
2022-10-10T20:29:42.669Z,14.50
2022-10-10T20:32:10.285Z,16.00
2022-10-10T20:34:40.423Z,18.55
2022-10-10T20:37:14.247Z,13.90
2022-10-10T20:39:41.990Z,11.98
2022-10-10T20:42:11.721Z,13.18
2022-10-10T20:44:49.543Z,14.10
2022-10-10T20:47:16.968Z,14.15
2022-10-10T20:49:44.377Z,15.88
2022-10-10T20:52:18.449Z,17.33
2022-10-10T20:54:46.097Z,16.27
2022-10-10T20:57:13.480Z,18.42
2022-10-10T20:59:47.626Z,13.57
2022-10-10T21:02:19.257Z,10.20
2022-10-10T21:04:49.381Z,12.18
2022-10-10T21:07:23.463Z,13.27
2022-10-10T21:09:59.112Z,17.25
2022-10-10T21:12:38.717Z,10.25
2022-10-10T21:15:06.544Z,11.95
2022-10-10T21:17:36.415Z,14.35
2022-10-10T21:20:10.284Z,16.02
2022-10-10T21:22:40.268Z,12.65
2022-10-10T21:25:21.158Z,16.98
2022-10-10T21:27:57.654Z,13.88
2022-10-10T21:30:32.662Z,14.13
2022-10-10T21:33:00.237Z,13.10
2022-10-10T21:35:27.683Z,14.32
2022-10-10T21:38:11.437Z,15.95
2022-10-10T21:40:39.188Z,13.90
2022-10-10T21:43:06.529Z,12.57
2022-10-10T21:45:44.439Z,10.63
2022-10-10T21:48:12.675Z,10.68
2022-10-10T21:50:40.669Z,12.93
2022-10-10T21:53:16.917Z,11.35
2022-10-10T21:55:44.342Z,10.70
2022-10-10T21:58:11.791Z,15.13
2022-10-10T22:00:48.606Z,9.57
2022-10-10T22:03:20.856Z,13.35
2022-10-10T22:05:53.172Z,16.40
2022-10-10T22:08:27.191Z,12.30
2022-10-10T22:10:57.658Z,12.38
2022-10-10T22:13:25.050Z,18.55
2022-10-10T22:16:02.375Z,11.30
2022-10-10T22:18:37.139Z,14.98
2022-10-10T22:21:25.708Z,12.85
2022-10-10T22:23:59.612Z,8.77
2022-10-10T22:26:42.843Z,14.77
2022-10-10T22:29:15.052Z,14.57
2022-10-10T22:31:42.413Z,11.75
2022-10-10T22:34:16.325Z,18.02
2022-10-10T22:36:46.227Z,12.82
2022-10-10T22:39:14.962Z,12.85
2022-10-10T22:41:49.063Z,17.27
2022-10-10T22:44:17.797Z,12.88
2022-10-10T22:46:45.531Z,14.00
2022-10-10T22:49:25.127Z,12.70
2022-10-10T22:51:52.582Z,15.40
2022-10-10T22:54:20.124Z,11.80
2022-10-10T22:56:54.105Z,11.57
2022-10-10T22:59:21.540Z,16.33
2022-10-10T23:01:51.321Z,18.02
2022-10-10T23:04:26.096Z,18.42
2022-10-10T23:06:53.455Z,13.60
2022-10-10T23:09:32.843Z,18.60
2022-10-10T23:12:06.899Z,14.02
2022-10-10T23:14:34.404Z,13.68
2022-10-10T23:17:04.302Z,19.10
2022-10-10T23:19:38.238Z,16.48
2022-10-10T23:22:08.080Z,16.70
2022-10-10T23:24:51.097Z,18.90
2022-10-10T23:27:32.307Z,13.00
2022-10-10T23:30:06.458Z,13.85
2022-10-10T23:32:33.809Z,13.13
2022-10-10T23:35:01.171Z,18.65
2022-10-10T23:37:35.464Z,14.43
2022-10-10T23:40:03.569Z,16.45
2022-10-10T23:42:32.296Z,17.50
2022-10-10T23:45:06.470Z,20.85
2022-10-10T23:47:36.323Z,18.70
2022-10-10T23:50:04.089Z,18.33
2022-10-10T23:52:38.305Z,21.25
2022-10-10T23:55:09.411Z,18.50
2022-10-10T23:57:36.833Z,14.50
